createdAt,value
2023-05-25T00:01:03.605Z,37.08
2023-05-25T00:06:10.461Z,35.28
2023-05-25T00:11:14.745Z,40.55
2023-05-25T00:16:20.271Z,37.53
2023-05-25T00:21:25.787Z,36.50
2023-05-25T00:26:29.820Z,40.85
2023-05-25T00:31:35.617Z,38.78
2023-05-25T00:36:39.981Z,41.10
2023-05-25T00:41:45.780Z,38.97
2023-05-25T00:46:53.614Z,41.22
2023-05-25T00:51:59.339Z,42.22
2023-05-25T00:57:05.335Z,41.95
2023-05-25T01:02:13.553Z,37.47
2023-05-25T01:07:22.279Z,34.40
2023-05-25T01:12:28.527Z,38.78
2023-05-25T01:17:38.312Z,39.50
2023-05-25T01:22:49.167Z,41.97
2023-05-25T01:27:58.963Z,37.78
2023-05-25T01:33:03.480Z,34.33
2023-05-25T01:38:10.939Z,44.85
2023-05-25T01:43:17.961Z,40.53
2023-05-25T01:48:31.607Z,35.05
2023-05-25T01:53:39.997Z,32.00
2023-05-25T01:58:46.665Z,37.85
2023-05-25T02:03:51.699Z,39.85
2023-05-25T02:08:57.331Z,39.13
2023-05-25T02:14:02.452Z,36.45
2023-05-25T02:19:06.608Z,37.97
2023-05-25T02:24:12.534Z,46.33
2023-05-25T02:29:16.544Z,41.25
2023-05-25T02:34:20.850Z,38.60
2023-05-25T02:39:27.874Z,48.75
2023-05-25T02:44:33.868Z,38.83
2023-05-25T02:49:38.059Z,42.05
2023-05-25T02:54:43.629Z,42.08
2023-05-25T02:59:54.259Z,42.58
2023-05-25T03:04:58.505Z,38.90
2023-05-25T03:10:04.039Z,45.13
2023-05-25T03:15:13.263Z,38.65
2023-05-25T03:20:17.994Z,48.80
2023-05-25T03:25:26.541Z,50.15
2023-05-25T03:35:36.025Z,44.05
2023-05-25T03:40:41.584Z,46.53
2023-05-25T03:45:46.374Z,49.50
2023-05-25T03:50:51.350Z,50.83
2023-05-25T03:55:56.952Z,56.83
2023-05-25T04:01:02.013Z,57.85
2023-05-25T04:06:07.582Z,54.72
2023-05-25T04:11:13.277Z,64.85
2023-05-25T04:16:18.073Z,59.88
2023-05-25T04:21:23.083Z,54.30
2023-05-25T04:26:29.027Z,56.47
2023-05-25T04:31:34.428Z,54.13
2023-05-25T04:36:52.696Z,56.47
2023-05-25T04:42:01.814Z,62.33
2023-05-25T04:47:07.440Z,67.25
2023-05-25T04:52:14.374Z,68.65
2023-05-25T04:57:23.613Z,61.72
2023-05-25T05:02:31.439Z,69.53
2023-05-25T05:07:39.920Z,65.15
2023-05-25T05:12:49.145Z,63.88
2023-05-25T05:17:55.847Z,66.90
2023-05-25T05:23:01.567Z,79.30
2023-05-25T05:28:07.072Z,83.43
2023-05-25T05:33:16.247Z,71.55
2023-05-25T05:38:24.562Z,71.38
2023-05-25T05:43:30.030Z,72.20
2023-05-25T05:48:34.306Z,69.15
2023-05-25T05:53:38.483Z,78.70
2023-05-25T05:58:43.956Z,70.50
2023-05-25T06:03:48.136Z,74.30
2023-05-25T06:08:52.442Z,83.07
2023-05-25T06:13:58.046Z,91.50
2023-05-25T06:24:07.242Z,83.22
2023-05-25T06:29:14.192Z,83.78
2023-05-25T06:34:20.600Z,91.90
2023-05-25T06:39:24.795Z,85.85
2023-05-25T06:44:30.716Z,98.53
2023-05-25T06:49:38.615Z,95.93
2023-05-25T06:54:42.830Z,97.22
2023-05-25T06:59:48.497Z,83.28
2023-05-25T07:04:52.810Z,92.25
2023-05-25T07:09:57.135Z,84.13
2023-05-25T07:15:02.553Z,92.00
2023-05-25T07:20:07.839Z,86.93
2023-05-25T07:25:12.155Z,86.85
2023-05-25T07:30:17.924Z,84.28
2023-05-25T07:40:25.957Z,86.20
2023-05-25T07:45:31.347Z,82.30
2023-05-25T07:50:35.394Z,82.00
2023-05-25T07:55:39.628Z,80.65
2023-05-25T08:00:45.088Z,88.75
2023-05-25T08:05:49.179Z,66.95
2023-05-25T08:10:53.954Z,72.03
2023-05-25T08:15:59.749Z,75.75
2023-05-25T08:26:20.388Z,78.97
2023-05-25T08:31:33.712Z,80.18
2023-05-25T08:36:38.804Z,85.15
2023-05-25T08:41:45.369Z,77.60
2023-05-25T08:46:50.936Z,87.03
2023-05-25T08:51:56.773Z,79.00
2023-05-25T08:57:07.283Z,89.57
2023-05-25T09:02:22.748Z,86.32
2023-05-25T09:07:27.750Z,97.43
2023-05-25T09:12:32.887Z,83.50
2023-05-25T09:17:38.606Z,88.13
2023-05-25T09:22:43.092Z,89.45
2023-05-25T09:27:47.405Z,87.07
2023-05-25T09:32:52.926Z,85.25
2023-05-25T09:37:57.232Z,88.15
2023-05-25T09:43:01.623Z,96.70
2023-05-25T09:48:08.228Z,85.00
2023-05-25T09:53:13.924Z,75.85
2023-05-25T09:58:18.279Z,59.15
2023-05-25T10:03:24.156Z,67.90
2023-05-25T10:08:29.301Z,66.55
2023-05-25T10:13:34.820Z,63.35
2023-05-25T10:18:45.429Z,66.82
2023-05-25T10:23:53.974Z,57.70
2023-05-25T10:29:01.698Z,58.58
2023-05-25T10:34:12.668Z,55.08
2023-05-25T10:39:18.338Z,45.30
2023-05-25T10:49:35.460Z,42.53
2023-05-25T10:54:40.560Z,45.15
2023-05-25T10:59:45.728Z,43.20
2023-05-25T11:05:17.710Z,39.70
2023-05-25T11:11:08.341Z,35.20
2023-05-25T11:16:22.955Z,37.47
2023-05-25T11:21:50.946Z,35.15
2023-05-25T11:32:51.480Z,34.50
2023-05-25T11:38:00.563Z,32.75
2023-05-25T11:43:09.701Z,33.38
2023-05-25T11:48:16.368Z,31.15
2023-05-25T11:53:36.509Z,30.15
2023-05-25T12:06:28.036Z,31.90
2023-05-25T12:11:34.908Z,37.45
2023-05-25T12:16:40.909Z,35.67
2023-05-25T12:21:45.854Z,37.55
2023-05-25T12:26:57.828Z,26.93
2023-05-25T12:32:05.721Z,28.77
2023-05-25T12:37:20.077Z,35.33
2023-05-25T12:42:27.680Z,28.50
2023-05-25T12:47:32.497Z,29.38
2023-05-25T12:52:38.332Z,28.92
2023-05-25T13:02:49.587Z,32.80
2023-05-25T13:07:57.145Z,27.58
2023-05-25T13:13:03.959Z,26.70
2023-05-25T13:18:08.054Z,28.15
2023-05-25T13:23:12.217Z,28.33
2023-05-25T13:28:17.794Z,28.75
2023-05-25T13:38:26.146Z,30.23
2023-05-25T13:43:32.075Z,30.63
2023-05-25T13:48:36.255Z,30.67
2023-05-25T13:53:40.343Z,26.75
2023-05-25T13:58:45.905Z,29.35
2023-05-25T14:03:50.145Z,27.30
2023-05-25T14:08:54.445Z,27.63
2023-05-25T14:14:00.015Z,30.38
2023-05-25T14:24:08.556Z,32.40
2023-05-25T14:29:14.102Z,30.52
2023-05-25T14:39:22.312Z,29.10
2023-05-25T14:44:27.824Z,36.38
2023-05-25T14:49:32.469Z,28.60
2023-05-25T14:54:36.483Z,33.22
2023-05-25T14:59:41.976Z,31.70
2023-05-25T15:04:47.761Z,32.97
2023-05-25T15:09:52.079Z,33.58
2023-05-25T15:14:57.587Z,29.42
2023-05-25T15:20:02.138Z,33.08
2023-05-25T15:25:09.382Z,26.63
2023-05-25T15:30:15.097Z,33.28
2023-05-25T15:40:22.849Z,30.42
2023-05-25T15:45:28.145Z,33.85
2023-05-25T15:50:32.162Z,31.17
2023-05-25T15:55:36.597Z,30.70
2023-05-25T16:00:42.062Z,30.53
2023-05-25T16:05:47.978Z,33.10
2023-05-25T16:10:51.920Z,31.58
2023-05-25T16:15:57.286Z,31.85
2023-05-25T16:26:06.093Z,34.55
2023-05-25T16:31:12.311Z,31.58
2023-05-25T16:36:17.201Z,31.30
2023-05-25T16:41:21.410Z,34.55
2023-05-25T16:46:26.967Z,33.85
2023-05-25T16:56:35.658Z,34.15
2023-05-25T17:01:41.114Z,36.40
2023-05-25T17:06:45.228Z,32.63
2023-05-25T17:11:50.368Z,35.67
2023-05-25T17:16:56.698Z,38.95
2023-05-25T17:22:00.895Z,36.30
2023-05-25T17:27:05.420Z,35.30
2023-05-25T17:32:10.909Z,39.03
2023-05-25T17:42:18.850Z,37.65
2023-05-25T17:47:25.612Z,34.72
2023-05-25T17:52:31.496Z,34.13
2023-05-25T18:02:41.047Z,37.78
2023-05-25T18:07:45.350Z,41.05
2023-05-25T18:12:52.207Z,33.53
2023-05-25T18:17:57.588Z,36.15
2023-05-25T18:23:03.353Z,41.25
2023-05-25T18:28:07.341Z,37.00
2023-05-25T18:33:12.824Z,40.70
2023-05-25T18:43:20.716Z,43.92
2023-05-25T18:48:26.584Z,42.35
2023-05-25T18:53:30.545Z,45.38
2023-05-25T18:58:34.590Z,45.03
2023-05-25T19:03:39.997Z,42.85
2023-05-25T19:08:44.271Z,41.47
2023-05-25T19:13:48.242Z,45.28
2023-05-25T19:18:53.595Z,46.28
2023-05-25T19:23:58.038Z,35.38
2023-05-25T19:29:01.997Z,39.78
2023-05-25T19:34:07.562Z,42.03
2023-05-25T19:39:11.652Z,39.72
2023-05-25T19:44:16.050Z,44.35
2023-05-25T19:49:21.632Z,39.88
2023-05-25T19:54:25.583Z,37.08
2023-05-25T19:59:30.384Z,42.60
2023-05-25T20:04:35.732Z,42.77
2023-05-25T20:09:40.031Z,40.35
2023-05-25T20:14:45.190Z,40.63
2023-05-25T20:19:50.475Z,41.45
2023-05-25T20:24:58.077Z,42.17
2023-05-25T20:30:02.056Z,42.33
2023-05-25T20:35:08.230Z,38.88
2023-05-25T20:40:12.349Z,48.38
2023-05-25T20:45:16.505Z,41.38
2023-05-25T20:50:21.811Z,45.47
2023-05-25T20:55:26.762Z,45.40
2023-05-25T21:00:30.727Z,47.33
2023-05-25T21:05:38.179Z,39.03
2023-05-25T21:10:42.292Z,44.28
2023-05-25T21:15:46.456Z,41.00
2023-05-25T21:20:51.984Z,39.85
2023-05-25T21:25:55.962Z,38.22
2023-05-25T21:31:00.302Z,40.45
2023-05-25T21:36:05.909Z,36.17
2023-05-25T21:46:14.108Z,43.67
2023-05-25T21:51:19.590Z,41.42
2023-05-25T21:56:24.110Z,44.50
2023-05-25T22:01:28.047Z,43.97
2023-05-25T22:06:33.973Z,41.15
2023-05-25T22:11:38.686Z,46.90
2023-05-25T22:16:43.184Z,51.90
2023-05-25T22:21:48.493Z,40.85
2023-05-25T22:26:53.212Z,41.35
2023-05-25T22:31:57.233Z,46.08
2023-05-25T22:37:02.730Z,39.13
2023-05-25T22:42:07.257Z,51.38
2023-05-25T22:47:11.195Z,43.38
2023-05-25T22:52:16.696Z,52.42
2023-05-25T22:57:20.717Z,47.25
2023-05-25T23:02:24.726Z,49.50
2023-05-25T23:07:30.158Z,49.80
2023-05-25T23:12:34.182Z,56.13
2023-05-25T23:17:38.356Z,48.78
2023-05-25T23:22:44.088Z,48.45
2023-05-25T23:27:48.021Z,50.22
2023-05-25T23:32:51.911Z,51.10
2023-05-25T23:37:57.772Z,50.15
2023-05-25T23:43:01.780Z,44.28
2023-05-25T23:48:05.813Z,46.15
2023-05-25T23:53:11.448Z,51.40
2023-05-25T23:58:15.703Z,44.35
